This is the latest recevied weather packets stored in our database for station/object IT9KWW-13. If no packets are shown the sender has not sent any weather packets the latest 1 day(s).
| Time | Temp. | Humidity | Pressure | Rain* | Wind** | Luminosity | Snow |
|---|---|---|---|---|---|---|---|
| 1777984281 | 21.11° C | 69% | 1013.9 hPa | 0 mm | 4.02 m/s, 202° | - | - |
| 1777984161 | 21.11° C | 68% | 1013.9 hPa | 0 mm | 4.47 m/s, 180° | - | - |
| 1777984040 | 21.11° C | 69% | 1013.9 hPa | 0 mm | 4.47 m/s, 202° | - | - |
| 1777983909 | 21.11° C | 68% | 1013.9 hPa | 0 mm | 4.02 m/s, 180° | - | - |
| 1777983789 | 21.11° C | 69% | 1013.9 hPa | 0 mm | 3.58 m/s, 202° | - | - |
| 1777983669 | 21.11° C | 68% | 1013.9 hPa | 0 mm | 5.36 m/s, 202° | - | - |
| 1777983538 | 21.11° C | 68% | 1013.9 hPa | 0 mm | 4.47 m/s, 202° | - | - |
| 1777983425 | 21.11° C | 68% | 1013.9 hPa | 0 mm | 5.36 m/s, 180° | - | - |
| 1777983296 | 21.11° C | 69% | 1013.9 hPa | 0 mm | 3.58 m/s, 180° | - | - |
| 1777983165 | 21.11° C | 69% | 1013.9 hPa | 0 mm | 3.58 m/s, 158° | - | - |
| 1777983044 | 21.11° C | 69% | 1013.9 hPa | 0 mm | 4.92 m/s, 225° | - | - |
| 1777982924 | 21.11° C | 69% | 1013.9 hPa | 0 mm | 4.02 m/s, 180° | - | - |
| 1777982793 | 21.67° C | 67% | 1013.9 hPa | 0 mm | 4.47 m/s, 202° | - | - |
| 1777982673 | 21.67° C | 68% | 1013.9 hPa | 0 mm | 4.02 m/s, 158° | - | - |
| 1777982553 | 21.67° C | 68% | 1013.9 hPa | 0 mm | 3.58 m/s, 158° | - | - |
| 1777982422 | 21.67° C | 67% | 1013.9 hPa | 0 mm | 5.81 m/s, 202° | - | - |
| 1777982300 | 21.67° C | 68% | 1013.9 hPa | 0 mm | 3.58 m/s, 158° | - | - |
| 1777982180 | 21.67° C | 67% | 1013.9 hPa | 0 mm | 3.58 m/s, 158° | - | - |
| 1777982049 | 21.67° C | 66% | 1013.9 hPa | 0 mm | 4.47 m/s, 180° | - | - |
| 1777981928 | 21.67° C | 68% | 1013.9 hPa | 0 mm | 3.13 m/s, 158° | - | - |
| 1777981808 | 21.67° C | 65% | 1013.9 hPa | 0 mm | 4.02 m/s, 248° | - | - |
| 1777981677 | 21.67° C | 68% | 1013.9 hPa | 0 mm | 2.68 m/s, 158° | - | - |
| 1777981557 | 21.67° C | 67% | 1013.9 hPa | 0 mm | 4.02 m/s, 202° | - | - |
| 1777981436 | 21.67° C | 67% | 1013.9 hPa | 0 mm | 5.81 m/s, 202° | - | - |
| 1777981305 | 21.67° C | 65% | 1013.9 hPa | 0 mm | 4.02 m/s, 158° | - | - |
* Rain latest hour (hover to see other rain measurements)
** Current wind speed in m/s (hover to see current wind gust speed)